createdAt,value
2022-10-01T00:00:07.478Z,13.00
2022-10-01T00:02:55.767Z,12.90
2022-10-01T00:05:43.434Z,12.90
2022-10-01T00:08:32.622Z,12.90
2022-10-01T00:11:18.455Z,12.90
2022-10-01T00:14:06.659Z,13.00
2022-10-01T00:16:48.581Z,13.00
2022-10-01T00:19:36.593Z,12.90
2022-10-01T00:22:18.634Z,12.90
2022-10-01T00:25:07.600Z,12.90
2022-10-01T00:27:52.508Z,13.10
2022-10-01T00:30:40.702Z,13.00
2022-10-01T00:33:28.459Z,13.10
2022-10-01T00:36:16.646Z,12.80
2022-10-01T00:39:06.495Z,12.90
2022-10-01T00:41:55.671Z,13.00
2022-10-01T00:44:48.425Z,12.90
2022-10-01T00:47:40.008Z,12.90
2022-10-01T00:50:29.423Z,13.00
2022-10-01T00:53:19.457Z,12.90
2022-10-01T00:56:04.608Z,12.90
2022-10-01T00:59:00.429Z,13.00
2022-10-01T01:01:48.735Z,13.00
2022-10-01T01:04:43.499Z,13.00
2022-10-01T01:07:31.522Z,12.90
2022-10-01T01:10:13.615Z,12.90
2022-10-01T01:13:05.522Z,12.90
2022-10-01T01:15:49.719Z,12.80
2022-10-01T01:18:46.437Z,13.00
2022-10-01T01:21:36.013Z,13.10
2022-10-01T01:24:39.446Z,13.10
2022-10-01T01:27:35.713Z,13.00
2022-10-01T01:30:27.443Z,13.00
2022-10-01T01:33:18.674Z,13.00
2022-10-01T01:36:02.520Z,13.00
2022-10-01T01:38:54.838Z,13.00
2022-10-01T01:41:36.715Z,13.00
2022-10-01T01:44:25.691Z,13.00
2022-10-01T01:47:08.475Z,12.80
2022-10-01T01:49:58.473Z,12.80
2022-10-01T01:52:40.506Z,12.90
2022-10-01T01:55:29.891Z,12.90
2022-10-01T01:58:11.518Z,12.90
2022-10-01T02:00:59.658Z,13.00
2022-10-01T02:03:49.472Z,13.00
2022-10-01T02:06:49.469Z,13.10
2022-10-01T02:09:46.484Z,13.10
2022-10-01T02:12:38.620Z,13.10
2022-10-01T02:15:31.466Z,13.10
2022-10-01T02:18:22.311Z,13.10
2022-10-01T02:21:11.467Z,13.10
2022-10-01T02:24:01.690Z,13.00
2022-10-01T02:26:43.510Z,12.90
2022-10-01T02:29:38.449Z,13.00
2022-10-01T02:32:26.799Z,13.00
2022-10-01T02:35:15.549Z,12.90
2022-10-01T02:38:06.636Z,12.90
2022-10-01T02:41:01.578Z,13.00
2022-10-01T02:43:53.888Z,13.00
2022-10-01T02:46:36.543Z,13.10
2022-10-01T02:49:28.546Z,13.30
2022-10-01T02:52:15.515Z,13.30
2022-10-01T02:55:06.713Z,13.40
2022-10-01T02:57:46.497Z,13.40
2022-10-01T03:00:34.751Z,13.40
2022-10-01T03:03:15.508Z,13.40
2022-10-01T03:06:10.513Z,13.50
2022-10-01T03:09:06.485Z,13.40
2022-10-01T03:11:55.709Z,13.40
2022-10-01T03:14:43.487Z,13.50
2022-10-01T03:17:31.733Z,13.50
2022-10-01T03:20:20.499Z,13.50
2022-10-01T03:23:08.689Z,13.50
2022-10-01T03:25:56.497Z,13.50
2022-10-01T03:28:45.726Z,13.50
2022-10-01T03:31:26.677Z,13.50
2022-10-01T03:34:14.772Z,13.60
2022-10-01T03:36:56.506Z,13.60
2022-10-01T03:39:44.863Z,13.70
2022-10-01T03:42:25.730Z,13.70
2022-10-01T03:45:15.654Z,13.80
2022-10-01T03:47:59.520Z,13.80
2022-10-01T03:50:47.685Z,13.90
2022-10-01T03:53:35.492Z,13.90
2022-10-01T03:56:23.763Z,14.00
2022-10-01T03:59:11.511Z,14.00
2022-10-01T04:02:00.727Z,14.00
2022-10-01T04:04:48.503Z,14.00
2022-10-01T04:07:36.694Z,14.10
2022-10-01T04:10:24.532Z,14.20
2022-10-01T04:13:12.712Z,14.30
2022-10-01T04:16:00.600Z,14.30
2022-10-01T04:18:49.741Z,14.30
2022-10-01T04:21:30.701Z,14.40
2022-10-01T04:24:18.667Z,14.40
2022-10-01T04:26:59.510Z,14.40
2022-10-01T04:29:47.635Z,14.40
2022-10-01T04:32:28.540Z,14.40
2022-10-01T04:35:17.791Z,14.50
2022-10-01T04:38:03.599Z,14.50
2022-10-01T04:40:51.937Z,14.50
2022-10-01T04:43:39.635Z,14.60
2022-10-01T04:46:27.891Z,14.80
2022-10-01T04:49:15.507Z,14.80
2022-10-01T04:52:04.763Z,14.90
2022-10-01T04:54:52.594Z,15.00
2022-10-01T04:57:41.671Z,15.10
2022-10-01T05:00:32.637Z,15.00
2022-10-01T05:03:20.655Z,15.10
2022-10-01T05:06:15.603Z,14.90
2022-10-01T05:09:04.751Z,15.00
2022-10-01T05:11:46.514Z,15.10
2022-10-01T05:14:41.522Z,15.20
2022-10-01T05:17:33.152Z,15.10
2022-10-01T05:20:21.705Z,15.30
2022-10-01T05:23:09.783Z,15.30
2022-10-01T05:25:59.574Z,15.30
2022-10-01T05:28:47.720Z,15.20
2022-10-01T05:31:29.578Z,15.20
2022-10-01T05:34:17.692Z,15.20
2022-10-01T05:36:59.638Z,15.20
2022-10-01T05:39:47.780Z,15.40
2022-10-01T05:42:30.563Z,15.30
2022-10-01T05:45:20.043Z,15.30
2022-10-01T05:48:05.633Z,15.40
2022-10-01T05:50:54.456Z,15.50
2022-10-01T05:53:46.053Z,15.40
2022-10-01T05:56:37.877Z,15.40
2022-10-01T05:59:31.725Z,15.40
2022-10-01T06:02:19.834Z,15.30
2022-10-01T06:05:07.543Z,15.20
2022-10-01T06:07:55.816Z,15.30
2022-10-01T06:10:43.526Z,15.40
2022-10-01T06:13:32.145Z,15.50
2022-10-01T06:16:14.597Z,15.70
2022-10-01T06:19:03.029Z,15.70
2022-10-01T06:21:44.540Z,15.90
2022-10-01T06:24:32.692Z,15.70
2022-10-01T06:27:14.644Z,15.70
2022-10-01T06:30:02.724Z,15.70
2022-10-01T06:32:51.639Z,15.60
2022-10-01T06:35:32.816Z,15.70
2022-10-01T06:38:27.558Z,15.70
2022-10-01T06:41:15.755Z,15.60
2022-10-01T06:44:03.627Z,15.70
2022-10-01T06:46:52.290Z,15.80
2022-10-01T06:49:44.515Z,15.70
2022-10-01T06:52:50.153Z,15.70
2022-10-01T06:55:38.630Z,15.70
2022-10-01T06:58:27.399Z,15.80
2022-10-01T07:01:14.696Z,15.90
2022-10-01T07:03:55.902Z,15.90
2022-10-01T07:06:51.547Z,15.90
2022-10-01T07:09:39.753Z,15.90
2022-10-01T07:12:21.572Z,15.90
2022-10-01T07:15:16.696Z,16.20
2022-10-01T07:17:58.657Z,16.30
2022-10-01T07:20:46.874Z,16.40
2022-10-01T07:23:36.562Z,16.40
2022-10-01T07:26:24.752Z,16.30
2022-10-01T07:29:12.762Z,16.50
2022-10-01T07:32:08.626Z,16.50
2022-10-01T07:34:56.570Z,16.50
2022-10-01T07:37:44.762Z,16.70
2022-10-01T07:40:34.650Z,16.70
2022-10-01T07:43:22.868Z,16.70
2022-10-01T07:46:06.696Z,16.70
2022-10-01T07:48:55.826Z,16.70
2022-10-01T07:51:37.675Z,16.60
2022-10-01T07:54:25.908Z,16.70
2022-10-01T07:57:08.652Z,16.80
2022-10-01T07:59:56.779Z,16.90
2022-10-01T08:02:46.640Z,16.90
2022-10-01T08:05:42.639Z,17.10
2022-10-01T08:08:37.599Z,17.20
2022-10-01T08:11:25.889Z,17.20
2022-10-01T08:14:15.608Z,17.20
2022-10-01T08:17:03.810Z,17.50
2022-10-01T08:19:51.578Z,17.50
2022-10-01T08:22:42.049Z,17.60
2022-10-01T08:25:37.619Z,17.70
2022-10-01T08:28:26.090Z,17.70
2022-10-01T08:31:13.601Z,17.60
2022-10-01T08:34:01.725Z,17.60
2022-10-01T08:36:44.676Z,17.80
2022-10-01T08:39:32.780Z,17.80
2022-10-01T08:42:27.589Z,17.80
2022-10-01T08:45:11.816Z,17.80
2022-10-01T08:48:02.611Z,17.80
2022-10-01T08:50:47.812Z,17.80
2022-10-01T08:53:44.594Z,17.90
2022-10-01T08:56:35.784Z,17.80
2022-10-01T08:59:28.616Z,17.70
2022-10-01T09:02:19.117Z,17.80
2022-10-01T09:05:10.647Z,17.70
2022-10-01T09:08:10.385Z,17.80
2022-10-01T09:10:59.605Z,17.80
2022-10-01T09:13:58.227Z,17.90
2022-10-01T09:16:43.760Z,17.80
2022-10-01T09:19:42.804Z,17.90
2022-10-01T09:22:36.665Z,18.10
2022-10-01T09:25:20.874Z,18.20
2022-10-01T09:28:10.747Z,18.30
2022-10-01T09:30:55.769Z,18.30
2022-10-01T09:33:51.643Z,18.40
2022-10-01T09:36:43.008Z,18.50
2022-10-01T09:39:34.630Z,18.20
2022-10-01T09:42:24.665Z,18.10
2022-10-01T09:45:07.205Z,18.10
2022-10-01T09:47:57.641Z,18.20
2022-10-01T09:50:49.619Z,18.00
2022-10-01T09:53:47.683Z,17.90
2022-10-01T09:56:38.810Z,17.90
2022-10-01T09:59:28.718Z,17.90
2022-10-01T10:02:22.841Z,17.90
2022-10-01T10:05:14.670Z,17.80
2022-10-01T10:08:03.759Z,17.80
2022-10-01T10:10:52.626Z,17.70
2022-10-01T10:13:42.831Z,17.80
2022-10-01T10:16:28.657Z,17.80
2022-10-01T10:19:23.442Z,17.80
2022-10-01T10:22:06.726Z,17.90
2022-10-01T10:24:54.837Z,18.00
2022-10-01T10:27:36.719Z,18.00
2022-10-01T10:30:26.355Z,18.10
2022-10-01T10:33:11.624Z,18.10
2022-10-01T10:35:52.794Z,18.20
2022-10-01T10:38:51.775Z,18.30
2022-10-01T10:41:33.835Z,18.40
2022-10-01T10:44:21.717Z,18.40
2022-10-01T10:47:13.714Z,18.40
2022-10-01T10:50:02.629Z,18.40
2022-10-01T10:52:45.712Z,18.40
2022-10-01T10:55:36.660Z,18.40
2022-10-01T10:58:24.949Z,18.60
2022-10-01T11:01:07.658Z,18.80
2022-10-01T11:03:57.869Z,18.90
2022-10-01T11:06:52.659Z,19.10
2022-10-01T11:09:49.187Z,19.20
2022-10-01T11:12:36.720Z,19.20
2022-10-01T11:15:35.842Z,19.30
2022-10-01T11:18:43.682Z,19.40
2022-10-01T11:21:49.711Z,19.50
2022-10-01T11:24:46.035Z,19.60
2022-10-01T11:27:30.702Z,19.70
2022-10-01T11:30:21.975Z,19.70
2022-10-01T11:33:09.760Z,19.60
2022-10-01T11:36:00.976Z,19.60
2022-10-01T11:38:59.676Z,19.80
2022-10-01T11:41:48.923Z,19.90
2022-10-01T11:44:40.718Z,19.90
2022-10-01T11:47:29.944Z,19.90
2022-10-01T11:50:19.667Z,19.80
2022-10-01T11:53:13.804Z,19.70
2022-10-01T11:56:25.732Z,19.60
2022-10-01T11:59:16.864Z,19.70
2022-10-01T12:02:02.728Z,19.70
2022-10-01T12:04:52.895Z,19.70
2022-10-01T12:07:51.759Z,19.90
2022-10-01T12:10:43.945Z,19.70
2022-10-01T12:13:39.763Z,19.90
2022-10-01T12:16:29.863Z,20.10
2022-10-01T12:19:20.697Z,20.20
2022-10-01T12:22:12.894Z,20.20
2022-10-01T12:25:01.714Z,20.20
2022-10-01T12:28:00.753Z,20.20
2022-10-01T12:30:49.816Z,20.30
2022-10-01T12:33:52.786Z,20.40
2022-10-01T12:36:45.812Z,20.40
2022-10-01T12:39:45.676Z,20.50
2022-10-01T12:42:46.698Z,20.70
2022-10-01T12:45:39.767Z,20.60
2022-10-01T12:48:32.324Z,20.60
2022-10-01T12:51:20.718Z,20.80
2022-10-01T12:54:13.578Z,20.90
2022-10-01T12:56:59.766Z,20.80
2022-10-01T12:59:59.199Z,20.80
2022-10-01T13:02:58.781Z,20.50
2022-10-01T13:05:57.680Z,20.30
2022-10-01T13:08:57.751Z,20.10
2022-10-01T13:11:52.842Z,20.20
2022-10-01T13:14:41.761Z,20.40
2022-10-01T13:17:34.917Z,20.40
2022-10-01T13:20:26.731Z,20.40
2022-10-01T13:23:20.005Z,20.30
2022-10-01T13:26:06.705Z,20.20
2022-10-01T13:28:59.909Z,20.20
2022-10-01T13:31:43.749Z,20.00
2022-10-01T13:34:34.891Z,19.80
2022-10-01T13:37:23.697Z,19.80
2022-10-01T13:40:28.835Z,19.80
2022-10-01T13:43:31.713Z,19.70
2022-10-01T13:46:19.907Z,19.70
2022-10-01T13:49:08.731Z,19.60
2022-10-01T13:51:57.031Z,19.60
2022-10-01T13:54:47.784Z,19.80
2022-10-01T13:57:42.486Z,19.80
2022-10-01T14:00:37.703Z,19.90
2022-10-01T14:03:44.761Z,20.00
2022-10-01T14:06:42.704Z,20.30
2022-10-01T14:09:31.925Z,20.30
2022-10-01T14:12:33.712Z,20.30
2022-10-01T14:15:42.440Z,20.20
2022-10-01T14:18:30.790Z,20.30
2022-10-01T14:21:28.581Z,20.60
2022-10-01T14:24:21.696Z,20.80
2022-10-01T14:27:12.919Z,20.70
2022-10-01T14:30:08.825Z,20.60
2022-10-01T14:32:59.751Z,20.70
2022-10-01T14:36:05.136Z,20.80
2022-10-01T14:38:52.986Z,20.80
2022-10-01T14:41:33.729Z,20.90
2022-10-01T14:44:29.959Z,21.00
2022-10-01T14:47:20.831Z,21.00
2022-10-01T14:50:19.104Z,20.90
2022-10-01T14:53:01.723Z,20.70
2022-10-01T14:55:50.031Z,20.60
2022-10-01T14:58:38.730Z,20.70
2022-10-01T15:01:26.957Z,20.50
2022-10-01T15:04:14.870Z,20.40
2022-10-01T15:07:16.797Z,20.40
2022-10-01T15:10:19.714Z,20.50
2022-10-01T15:13:07.951Z,20.30
2022-10-01T15:15:55.849Z,20.30
2022-10-01T15:18:44.026Z,20.20
2022-10-01T15:21:27.768Z,20.10
2022-10-01T15:24:22.888Z,20.00
2022-10-01T15:27:10.776Z,20.00
2022-10-01T15:29:56.271Z,19.90
2022-10-01T15:32:44.777Z,19.90
2022-10-01T15:35:33.844Z,19.90
2022-10-01T15:38:22.014Z,19.80
2022-10-01T15:41:29.803Z,19.80
2022-10-01T15:44:13.915Z,19.80
2022-10-01T15:46:55.795Z,19.90
2022-10-01T15:49:43.932Z,19.90
2022-10-01T15:52:42.759Z,19.90
2022-10-01T15:55:34.964Z,19.90
2022-10-01T15:58:22.800Z,19.80
2022-10-01T16:01:07.085Z,19.70
2022-10-01T16:04:09.753Z,19.70
2022-10-01T16:07:04.792Z,19.70
2022-10-01T16:10:05.797Z,19.60
2022-10-01T16:12:47.273Z,19.60
2022-10-01T16:15:43.815Z,19.60
2022-10-01T16:18:32.907Z,19.50
2022-10-01T16:21:15.794Z,19.70
2022-10-01T16:24:03.999Z,19.70
2022-10-01T16:26:45.756Z,19.70
2022-10-01T16:29:40.759Z,19.50
2022-10-01T16:32:30.012Z,19.50
2022-10-01T16:35:38.769Z,19.50
2022-10-01T16:38:27.144Z,19.50
2022-10-01T16:41:08.773Z,19.40
2022-10-01T16:43:56.996Z,19.50
2022-10-01T16:46:38.863Z,19.60
2022-10-01T16:49:28.027Z,19.50
2022-10-01T16:52:09.863Z,19.60
2022-10-01T16:54:57.999Z,19.50
2022-10-01T16:57:38.769Z,19.50
2022-10-01T17:00:26.954Z,19.50
2022-10-01T17:03:07.811Z,19.50
2022-10-01T17:06:03.796Z,19.50
2022-10-01T17:08:58.806Z,19.40
2022-10-01T17:11:46.971Z,19.40
2022-10-01T17:14:34.789Z,19.40
2022-10-01T17:17:22.927Z,19.40
2022-10-01T17:20:10.789Z,19.50
2022-10-01T17:23:00.332Z,19.50
2022-10-01T17:25:48.818Z,19.30
2022-10-01T17:28:37.007Z,19.20
2022-10-01T17:31:18.867Z,19.10
2022-10-01T17:34:06.922Z,19.00
2022-10-01T17:36:47.833Z,19.00
2022-10-01T17:39:37.002Z,18.90
2022-10-01T17:42:17.811Z,19.20
2022-10-01T17:45:05.933Z,19.20
2022-10-01T17:47:49.792Z,19.10
2022-10-01T17:50:43.655Z,18.90
2022-10-01T17:53:42.499Z,18.70
2022-10-01T17:56:33.074Z,18.80
2022-10-01T17:59:20.831Z,18.80
2022-10-01T18:02:29.703Z,18.90
2022-10-01T18:05:18.786Z,18.80
2022-10-01T18:08:13.800Z,18.60
2022-10-01T18:11:01.872Z,18.60
2022-10-01T18:13:51.086Z,18.50
2022-10-01T18:16:31.855Z,18.40
2022-10-01T18:22:22.024Z,18.50
2022-10-01T18:25:10.064Z,18.40
2022-10-01T18:27:52.926Z,18.30
2022-10-01T18:30:41.947Z,18.40
2022-10-01T18:33:29.827Z,18.50
2022-10-01T18:36:22.992Z,18.40
2022-10-01T18:39:17.923Z,18.30
2022-10-01T18:42:06.031Z,18.30
2022-10-01T18:45:00.831Z,18.40
2022-10-01T18:47:55.084Z,18.30
2022-10-01T18:50:49.841Z,18.30
2022-10-01T18:53:45.090Z,18.20
2022-10-01T18:56:29.815Z,18.20
2022-10-01T18:59:48.087Z,18.20
2022-10-01T19:02:41.948Z,18.20
2022-10-01T19:05:46.071Z,18.10
2022-10-01T19:08:48.840Z,17.90
2022-10-01T19:11:36.207Z,17.90
2022-10-01T19:14:34.902Z,17.90
2022-10-01T19:17:27.995Z,17.70
2022-10-01T19:20:28.931Z,17.80
2022-10-01T19:23:17.174Z,17.80
2022-10-01T19:26:08.890Z,17.80
2022-10-01T19:29:01.104Z,17.70
2022-10-01T19:31:48.893Z,17.70
2022-10-01T19:34:38.026Z,17.80
2022-10-01T19:37:21.863Z,17.70
2022-10-01T19:40:11.995Z,17.50
2022-10-01T19:43:03.896Z,17.40
2022-10-01T19:45:52.055Z,17.40
2022-10-01T19:48:54.845Z,17.50
2022-10-01T19:51:44.096Z,17.60
2022-10-01T19:54:32.858Z,17.60
2022-10-01T19:57:25.066Z,17.50
2022-10-01T20:00:17.827Z,17.50
2022-10-01T20:03:09.994Z,17.70
2022-10-01T20:06:00.951Z,17.50
2022-10-01T20:08:52.639Z,17.50
2022-10-01T20:11:36.861Z,17.50
2022-10-01T20:14:47.711Z,17.30
2022-10-01T20:17:32.850Z,17.30
2022-10-01T20:20:24.286Z,17.20
2022-10-01T20:23:11.956Z,17.30
2022-10-01T20:26:06.147Z,17.40
2022-10-01T20:29:06.911Z,17.30
2022-10-01T20:32:01.130Z,17.20
2022-10-01T20:34:58.858Z,17.30
2022-10-01T20:37:53.099Z,17.30
2022-10-01T20:40:42.870Z,17.20
2022-10-01T20:43:34.065Z,17.30
2022-10-01T20:46:17.885Z,17.30
2022-10-01T20:49:08.076Z,17.20
2022-10-01T20:51:55.864Z,17.10
2022-10-01T20:54:47.519Z,17.10
2022-10-01T20:57:31.931Z,17.10
2022-10-01T21:00:23.216Z,17.20
2022-10-01T21:03:10.916Z,17.10
2022-10-01T21:05:54.163Z,17.20
2022-10-01T21:08:54.903Z,17.30
2022-10-01T21:11:45.055Z,17.40
2022-10-01T21:14:34.873Z,17.20
2022-10-01T21:17:33.970Z,17.30
2022-10-01T21:20:29.942Z,17.40
2022-10-01T21:23:26.121Z,17.20
2022-10-01T21:26:19.857Z,17.20
2022-10-01T21:29:15.784Z,17.20
2022-10-01T21:32:11.873Z,17.10
2022-10-01T21:35:00.193Z,17.20
2022-10-01T21:37:49.912Z,17.10
2022-10-01T21:40:40.928Z,17.10
2022-10-01T21:43:37.153Z,17.20
2022-10-01T21:46:22.885Z,17.00
2022-10-01T21:49:15.031Z,17.00
2022-10-01T21:52:01.887Z,17.00
2022-10-01T21:55:04.122Z,17.00
2022-10-01T21:57:54.970Z,17.00
2022-10-01T22:00:50.920Z,17.10
2022-10-01T22:03:42.552Z,17.10
2022-10-01T22:06:39.864Z,17.10
2022-10-01T22:09:32.098Z,17.00
2022-10-01T22:12:14.876Z,17.00
2022-10-01T22:15:04.081Z,17.00
2022-10-01T22:17:46.893Z,17.10
2022-10-01T22:20:37.132Z,17.10
2022-10-01T22:23:19.895Z,17.10
2022-10-01T22:26:10.090Z,17.00
2022-10-01T22:29:00.896Z,17.10
2022-10-01T22:31:49.971Z,17.10
2022-10-01T22:34:40.947Z,17.00
2022-10-01T22:37:30.080Z,16.80
2022-10-01T22:40:20.887Z,16.80
2022-10-01T22:43:12.054Z,17.00
2022-10-01T22:46:06.943Z,16.80
2022-10-01T22:48:59.159Z,16.80
2022-10-01T22:51:52.985Z,16.80
2022-10-01T22:54:45.505Z,16.70
2022-10-01T22:57:42.895Z,16.80
2022-10-01T23:00:31.202Z,16.80
2022-10-01T23:03:17.909Z,16.80
2022-10-01T23:06:05.039Z,16.80
2022-10-01T23:09:03.912Z,16.70
2022-10-01T23:11:56.065Z,16.90
2022-10-01T23:14:51.983Z,16.90
2022-10-01T23:17:42.064Z,16.90
2022-10-01T23:20:34.914Z,16.90
2022-10-01T23:23:28.181Z,16.90
2022-10-01T23:26:36.158Z,17.00
2022-10-01T23:29:34.195Z,17.00
2022-10-01T23:32:18.898Z,17.00
2022-10-01T23:35:09.215Z,16.80
2022-10-01T23:38:06.003Z,16.90
2022-10-01T23:40:56.141Z,16.90
2022-10-01T23:43:46.930Z,16.70
2022-10-01T23:46:38.321Z,16.80
2022-10-01T23:49:34.029Z,16.80
2022-10-01T23:52:24.049Z,16.80
2022-10-01T23:55:27.983Z,16.90
2022-10-01T23:58:19.167Z,16.80
